sensor_id;sensor_type;location;lat;lon;timestamp;P1;durP1;ratioP1;P2;durP2;ratioP2
32080;SDS011;18593;51.426;7.030;2024-02-16T00:01:34;5.65;;;1.75;;
32080;SDS011;18593;51.426;7.030;2024-02-16T00:04:02;10.68;;;2.28;;
32080;SDS011;18593;51.426;7.030;2024-02-16T00:06:29;5.18;;;1.80;;
32080;SDS011;18593;51.426;7.030;2024-02-16T00:08:58;5.00;;;1.90;;
32080;SDS011;18593;51.426;7.030;2024-02-16T00:11:26;5.53;;;1.80;;
32080;SDS011;18593;51.426;7.030;2024-02-16T00:13:54;8.00;;;2.30;;
32080;SDS011;18593;51.426;7.030;2024-02-16T00:16:22;9.40;;;2.25;;
32080;SDS011;18593;51.426;7.030;2024-02-16T00:18:51;5.55;;;2.00;;
32080;SDS011;18593;51.426;7.030;2024-02-16T00:21:18;4.50;;;1.80;;
32080;SDS011;18593;51.426;7.030;2024-02-16T00:23:46;7.97;;;2.17;;
32080;SDS011;18593;51.426;7.030;2024-02-16T00:26:13;5.53;;;1.90;;
32080;SDS011;18593;51.426;7.030;2024-02-16T00:28:41;4.25;;;1.75;;
32080;SDS011;18593;51.426;7.030;2024-02-16T00:31:08;5.93;;;1.85;;
32080;SDS011;18593;51.426;7.030;2024-02-16T00:33:37;5.35;;;1.77;;
32080;SDS011;18593;51.426;7.030;2024-02-16T00:36:05;7.95;;;1.90;;
32080;SDS011;18593;51.426;7.030;2024-02-16T00:38:35;5.65;;;2.10;;
32080;SDS011;18593;51.426;7.030;2024-02-16T00:41:03;6.15;;;1.90;;
32080;SDS011;18593;51.426;7.030;2024-02-16T00:43:30;6.13;;;1.92;;
32080;SDS011;18593;51.426;7.030;2024-02-16T00:45:58;5.30;;;2.00;;
32080;SDS011;18593;51.426;7.030;2024-02-16T00:48:25;4.88;;;1.90;;
32080;SDS011;18593;51.426;7.030;2024-02-16T00:50:56;5.63;;;1.63;;
32080;SDS011;18593;51.426;7.030;2024-02-16T00:53:23;5.35;;;2.40;;
32080;SDS011;18593;51.426;7.030;2024-02-16T00:55:51;4.45;;;1.90;;
32080;SDS011;18593;51.426;7.030;2024-02-16T00:58:18;6.85;;;2.13;;
32080;SDS011;18593;51.426;7.030;2024-02-16T01:00:46;5.65;;;2.17;;
32080;SDS011;18593;51.426;7.030;2024-02-16T01:03:14;4.95;;;1.83;;
32080;SDS011;18593;51.426;7.030;2024-02-16T01:05:41;7.68;;;2.22;;
32080;SDS011;18593;51.426;7.030;2024-02-16T01:08:11;3.92;;;1.50;;
32080;SDS011;18593;51.426;7.030;2024-02-16T01:10:38;5.03;;;2.08;;
32080;SDS011;18593;51.426;7.030;2024-02-16T01:13:06;7.32;;;2.03;;
32080;SDS011;18593;51.426;7.030;2024-02-16T01:15:34;4.80;;;1.70;;
32080;SDS011;18593;51.426;7.030;2024-02-16T01:18:02;5.68;;;1.85;;
32080;SDS011;18593;51.426;7.030;2024-02-16T01:20:30;4.82;;;1.88;;
32080;SDS011;18593;51.426;7.030;2024-02-16T01:22:58;5.85;;;2.00;;
32080;SDS011;18593;51.426;7.030;2024-02-16T01:25:27;5.53;;;2.10;;
32080;SDS011;18593;51.426;7.030;2024-02-16T01:27:55;6.50;;;2.03;;
32080;SDS011;18593;51.426;7.030;2024-02-16T01:30:22;9.25;;;1.80;;
32080;SDS011;18593;51.426;7.030;2024-02-16T01:32:49;4.88;;;1.92;;
32080;SDS011;18593;51.426;7.030;2024-02-16T01:35:17;6.97;;;1.77;;
32080;SDS011;18593;51.426;7.030;2024-02-16T01:37:44;5.47;;;1.92;;
32080;SDS011;18593;51.426;7.030;2024-02-16T01:40:12;4.05;;;2.00;;
32080;SDS011;18593;51.426;7.030;2024-02-16T01:42:43;5.03;;;1.80;;
32080;SDS011;18593;51.426;7.030;2024-02-16T01:45:13;4.82;;;1.90;;
32080;SDS011;18593;51.426;7.030;2024-02-16T01:47:41;5.93;;;1.85;;
32080;SDS011;18593;51.426;7.030;2024-02-16T01:50:12;5.10;;;2.08;;
32080;SDS011;18593;51.426;7.030;2024-02-16T01:52:41;7.75;;;2.08;;
32080;SDS011;18593;51.426;7.030;2024-02-16T01:55:09;6.78;;;2.10;;
32080;SDS011;18593;51.426;7.030;2024-02-16T01:57:39;5.05;;;1.85;;
32080;SDS011;18593;51.426;7.030;2024-02-16T02:00:11;6.40;;;2.17;;
32080;SDS011;18593;51.426;7.030;2024-02-16T02:02:43;4.32;;;1.85;;
32080;SDS011;18593;51.426;7.030;2024-02-16T02:05:12;7.22;;;1.98;;
32080;SDS011;18593;51.426;7.030;2024-02-16T02:07:40;4.47;;;1.90;;
32080;SDS011;18593;51.426;7.030;2024-02-16T02:10:08;3.72;;;1.80;;
32080;SDS011;18593;51.426;7.030;2024-02-16T02:12:37;4.35;;;1.90;;
32080;SDS011;18593;51.426;7.030;2024-02-16T02:15:08;4.93;;;2.20;;
32080;SDS011;18593;51.426;7.030;2024-02-16T02:17:37;4.78;;;1.95;;
32080;SDS011;18593;51.426;7.030;2024-02-16T02:20:05;6.07;;;2.20;;
32080;SDS011;18593;51.426;7.030;2024-02-16T02:22:38;6.15;;;2.28;;
32080;SDS011;18593;51.426;7.030;2024-02-16T02:25:06;9.27;;;2.10;;
32080;SDS011;18593;51.426;7.030;2024-02-16T02:27:36;5.75;;;2.10;;
32080;SDS011;18593;51.426;7.030;2024-02-16T02:30:04;4.57;;;1.92;;
32080;SDS011;18593;51.426;7.030;2024-02-16T02:32:33;5.63;;;2.10;;
32080;SDS011;18593;51.426;7.030;2024-02-16T02:35:02;6.05;;;2.13;;
32080;SDS011;18593;51.426;7.030;2024-02-16T02:37:30;6.20;;;1.88;;
32080;SDS011;18593;51.426;7.030;2024-02-16T02:39:59;6.45;;;1.98;;
32080;SDS011;18593;51.426;7.030;2024-02-16T02:42:28;4.30;;;2.15;;
32080;SDS011;18593;51.426;7.030;2024-02-16T02:44:55;5.18;;;2.10;;
32080;SDS011;18593;51.426;7.030;2024-02-16T02:47:23;5.85;;;2.30;;
32080;SDS011;18593;51.426;7.030;2024-02-16T02:49:50;4.25;;;1.65;;
32080;SDS011;18593;51.426;7.030;2024-02-16T02:52:18;4.22;;;1.80;;
32080;SDS011;18593;51.426;7.030;2024-02-16T02:54:46;3.60;;;1.70;;
32080;SDS011;18593;51.426;7.030;2024-02-16T02:57:15;5.00;;;2.00;;
32080;SDS011;18593;51.426;7.030;2024-02-16T02:59:42;5.30;;;2.10;;
32080;SDS011;18593;51.426;7.030;2024-02-16T03:02:10;6.85;;;2.00;;
32080;SDS011;18593;51.426;7.030;2024-02-16T03:04:38;6.50;;;2.00;;
32080;SDS011;18593;51.426;7.030;2024-02-16T03:07:05;9.68;;;2.28;;
32080;SDS011;18593;51.426;7.030;2024-02-16T03:09:33;5.22;;;2.03;;
32080;SDS011;18593;51.426;7.030;2024-02-16T03:12:00;5.40;;;1.95;;
32080;SDS011;18593;51.426;7.030;2024-02-16T03:14:29;6.82;;;1.65;;
32080;SDS011;18593;51.426;7.030;2024-02-16T03:16:56;4.35;;;2.00;;
32080;SDS011;18593;51.426;7.030;2024-02-16T03:19:24;4.88;;;1.80;;
32080;SDS011;18593;51.426;7.030;2024-02-16T03:21:52;5.32;;;2.00;;
32080;SDS011;18593;51.426;7.030;2024-02-16T03:24:19;3.90;;;1.85;;
32080;SDS011;18593;51.426;7.030;2024-02-16T03:26:47;7.22;;;2.10;;
32080;SDS011;18593;51.426;7.030;2024-02-16T03:29:14;5.90;;;2.10;;
32080;SDS011;18593;51.426;7.030;2024-02-16T03:31:43;4.78;;;1.98;;
32080;SDS011;18593;51.426;7.030;2024-02-16T03:34:11;5.45;;;1.90;;
32080;SDS011;18593;51.426;7.030;2024-02-16T03:36:38;4.85;;;2.08;;
32080;SDS011;18593;51.426;7.030;2024-02-16T03:39:05;7.07;;;2.33;;
32080;SDS011;18593;51.426;7.030;2024-02-16T03:41:33;4.10;;;1.90;;
32080;SDS011;18593;51.426;7.030;2024-02-16T03:44:01;4.32;;;2.22;;
32080;SDS011;18593;51.426;7.030;2024-02-16T03:46:29;3.53;;;1.83;;
32080;SDS011;18593;51.426;7.030;2024-02-16T03:48:58;10.23;;;2.00;;
32080;SDS011;18593;51.426;7.030;2024-02-16T03:51:25;4.45;;;1.60;;
32080;SDS011;18593;51.426;7.030;2024-02-16T03:53:54;7.68;;;2.22;;
32080;SDS011;18593;51.426;7.030;2024-02-16T03:56:21;7.32;;;2.03;;
32080;SDS011;18593;51.426;7.030;2024-02-16T03:58:49;5.80;;;2.28;;
32080;SDS011;18593;51.426;7.030;2024-02-16T04:01:17;7.10;;;2.47;;
32080;SDS011;18593;51.426;7.030;2024-02-16T04:03:45;5.50;;;2.20;;
32080;SDS011;18593;51.426;7.030;2024-02-16T04:06:13;5.03;;;2.00;;
32080;SDS011;18593;51.426;7.030;2024-02-16T04:08:41;4.20;;;1.98;;
32080;SDS011;18593;51.426;7.030;2024-02-16T04:11:10;7.28;;;2.20;;
32080;SDS011;18593;51.426;7.030;2024-02-16T04:13:40;6.35;;;2.33;;
32080;SDS011;18593;51.426;7.030;2024-02-16T04:16:07;5.70;;;2.20;;
32080;SDS011;18593;51.426;7.030;2024-02-16T04:18:35;4.28;;;1.73;;
32080;SDS011;18593;51.426;7.030;2024-02-16T04:21:02;8.00;;;1.98;;
32080;SDS011;18593;51.426;7.030;2024-02-16T04:23:32;6.13;;;2.05;;
32080;SDS011;18593;51.426;7.030;2024-02-16T04:26:00;8.55;;;2.33;;
32080;SDS011;18593;51.426;7.030;2024-02-16T04:28:32;4.55;;;1.83;;
32080;SDS011;18593;51.426;7.030;2024-02-16T04:31:00;6.50;;;2.28;;
32080;SDS011;18593;51.426;7.030;2024-02-16T04:33:28;6.75;;;2.08;;
32080;SDS011;18593;51.426;7.030;2024-02-16T04:35:56;6.47;;;2.05;;
32080;SDS011;18593;51.426;7.030;2024-02-16T04:38:23;4.18;;;2.10;;
32080;SDS011;18593;51.426;7.030;2024-02-16T04:40:52;7.18;;;2.20;;
32080;SDS011;18593;51.426;7.030;2024-02-16T04:43:19;5.90;;;2.05;;
32080;SDS011;18593;51.426;7.030;2024-02-16T04:45:47;6.68;;;2.35;;
32080;SDS011;18593;51.426;7.030;2024-02-16T04:48:15;5.75;;;2.00;;
32080;SDS011;18593;51.426;7.030;2024-02-16T04:50:42;10.00;;;2.20;;
32080;SDS011;18593;51.426;7.030;2024-02-16T04:53:10;6.03;;;1.88;;
32080;SDS011;18593;51.426;7.030;2024-02-16T04:55:37;8.00;;;2.72;;
32080;SDS011;18593;51.426;7.030;2024-02-16T04:58:06;6.40;;;2.15;;
32080;SDS011;18593;51.426;7.030;2024-02-16T05:00:36;5.57;;;1.90;;
32080;SDS011;18593;51.426;7.030;2024-02-16T05:03:08;5.25;;;2.10;;
32080;SDS011;18593;51.426;7.030;2024-02-16T05:05:35;6.07;;;2.15;;
32080;SDS011;18593;51.426;7.030;2024-02-16T05:08:03;10.00;;;2.40;;
32080;SDS011;18593;51.426;7.030;2024-02-16T05:10:32;6.05;;;2.15;;
32080;SDS011;18593;51.426;7.030;2024-02-16T05:12:59;4.75;;;1.95;;
32080;SDS011;18593;51.426;7.030;2024-02-16T05:15:28;5.55;;;1.98;;
32080;SDS011;18593;51.426;7.030;2024-02-16T05:17:56;5.03;;;2.20;;
32080;SDS011;18593;51.426;7.030;2024-02-16T05:20:25;5.80;;;2.00;;
32080;SDS011;18593;51.426;7.030;2024-02-16T05:22:53;6.18;;;2.00;;
32080;SDS011;18593;51.426;7.030;2024-02-16T05:25:21;5.45;;;2.20;;
32080;SDS011;18593;51.426;7.030;2024-02-16T05:27:49;6.18;;;2.13;;
32080;SDS011;18593;51.426;7.030;2024-02-16T05:30:16;8.40;;;2.38;;
32080;SDS011;18593;51.426;7.030;2024-02-16T05:32:45;6.15;;;2.15;;
32080;SDS011;18593;51.426;7.030;2024-02-16T05:35:14;9.77;;;2.58;;
32080;SDS011;18593;51.426;7.030;2024-02-16T05:37:42;6.40;;;2.28;;
32080;SDS011;18593;51.426;7.030;2024-02-16T05:40:12;7.45;;;2.20;;
32080;SDS011;18593;51.426;7.030;2024-02-16T05:42:50;6.75;;;2.50;;
32080;SDS011;18593;51.426;7.030;2024-02-16T05:45:18;7.80;;;2.40;;
32080;SDS011;18593;51.426;7.030;2024-02-16T05:47:48;6.72;;;2.17;;
32080;SDS011;18593;51.426;7.030;2024-02-16T05:50:16;5.73;;;2.20;;
32080;SDS011;18593;51.426;7.030;2024-02-16T05:52:46;8.80;;;2.25;;
32080;SDS011;18593;51.426;7.030;2024-02-16T05:55:15;4.07;;;2.08;;
32080;SDS011;18593;51.426;7.030;2024-02-16T05:57:44;6.60;;;2.20;;
32080;SDS011;18593;51.426;7.030;2024-02-16T06:00:12;5.45;;;2.47;;
32080;SDS011;18593;51.426;7.030;2024-02-16T06:02:41;8.07;;;2.70;;
32080;SDS011;18593;51.426;7.030;2024-02-16T06:05:09;8.32;;;2.30;;
32080;SDS011;18593;51.426;7.030;2024-02-16T06:07:37;6.35;;;2.40;;
32080;SDS011;18593;51.426;7.030;2024-02-16T06:10:08;5.15;;;2.40;;
32080;SDS011;18593;51.426;7.030;2024-02-16T06:12:37;8.15;;;2.50;;
32080;SDS011;18593;51.426;7.030;2024-02-16T06:15:06;6.38;;;2.30;;
32080;SDS011;18593;51.426;7.030;2024-02-16T06:17:33;7.15;;;2.30;;
32080;SDS011;18593;51.426;7.030;2024-02-16T06:20:02;8.18;;;2.30;;
32080;SDS011;18593;51.426;7.030;2024-02-16T06:22:36;8.95;;;3.05;;
32080;SDS011;18593;51.426;7.030;2024-02-16T06:25:03;9.43;;;2.58;;
32080;SDS011;18593;51.426;7.030;2024-02-16T06:27:33;6.28;;;2.47;;
32080;SDS011;18593;51.426;7.030;2024-02-16T06:30:00;5.70;;;2.15;;
32080;SDS011;18593;51.426;7.030;2024-02-16T06:32:30;7.40;;;2.67;;
32080;SDS011;18593;51.426;7.030;2024-02-16T06:34:58;8.73;;;2.67;;
32080;SDS011;18593;51.426;7.030;2024-02-16T06:37:32;6.50;;;2.35;;
32080;SDS011;18593;51.426;7.030;2024-02-16T06:40:01;6.63;;;2.70;;
32080;SDS011;18593;51.426;7.030;2024-02-16T06:42:29;7.85;;;2.83;;
32080;SDS011;18593;51.426;7.030;2024-02-16T06:44:59;9.63;;;3.10;;
32080;SDS011;18593;51.426;7.030;2024-02-16T06:47:27;14.38;;;4.60;;
32080;SDS011;18593;51.426;7.030;2024-02-16T06:49:55;9.38;;;4.15;;
32080;SDS011;18593;51.426;7.030;2024-02-16T06:52:22;8.55;;;3.53;;
32080;SDS011;18593;51.426;7.030;2024-02-16T06:54:50;7.18;;;2.60;;
32080;SDS011;18593;51.426;7.030;2024-02-16T06:57:20;7.43;;;2.55;;
32080;SDS011;18593;51.426;7.030;2024-02-16T06:59:48;9.93;;;2.80;;
32080;SDS011;18593;51.426;7.030;2024-02-16T07:02:15;7.70;;;2.28;;
32080;SDS011;18593;51.426;7.030;2024-02-16T07:04:43;6.40;;;2.63;;
32080;SDS011;18593;51.426;7.030;2024-02-16T07:07:11;7.45;;;2.75;;
32080;SDS011;18593;51.426;7.030;2024-02-16T07:09:39;6.90;;;2.60;;
32080;SDS011;18593;51.426;7.030;2024-02-16T07:12:07;8.90;;;2.42;;
32080;SDS011;18593;51.426;7.030;2024-02-16T07:14:39;9.23;;;2.83;;
32080;SDS011;18593;51.426;7.030;2024-02-16T07:17:06;6.28;;;2.40;;
32080;SDS011;18593;51.426;7.030;2024-02-16T07:19:35;7.20;;;2.38;;
32080;SDS011;18593;51.426;7.030;2024-02-16T07:22:02;7.13;;;2.63;;
32080;SDS011;18593;51.426;7.030;2024-02-16T07:24:31;7.60;;;2.20;;
32080;SDS011;18593;51.426;7.030;2024-02-16T07:26:59;7.38;;;2.38;;
32080;SDS011;18593;51.426;7.030;2024-02-16T07:29:27;5.57;;;2.50;;
32080;SDS011;18593;51.426;7.030;2024-02-16T07:31:56;6.43;;;2.70;;
32080;SDS011;18593;51.426;7.030;2024-02-16T07:34:24;7.97;;;2.63;;
32080;SDS011;18593;51.426;7.030;2024-02-16T07:36:53;10.70;;;2.50;;
32080;SDS011;18593;51.426;7.030;2024-02-16T07:39:20;8.63;;;2.47;;
32080;SDS011;18593;51.426;7.030;2024-02-16T07:41:49;7.57;;;2.55;;
32080;SDS011;18593;51.426;7.030;2024-02-16T07:44:16;8.63;;;2.35;;
32080;SDS011;18593;51.426;7.030;2024-02-16T07:46:43;5.05;;;2.35;;
32080;SDS011;18593;51.426;7.030;2024-02-16T07:49:13;9.20;;;2.67;;
32080;SDS011;18593;51.426;7.030;2024-02-16T07:51:40;6.38;;;2.30;;
32080;SDS011;18593;51.426;7.030;2024-02-16T07:54:08;5.13;;;2.17;;
32080;SDS011;18593;51.426;7.030;2024-02-16T07:56:35;5.85;;;2.60;;
32080;SDS011;18593;51.426;7.030;2024-02-16T07:59:03;6.30;;;2.50;;
32080;SDS011;18593;51.426;7.030;2024-02-16T08:01:30;11.73;;;2.55;;
32080;SDS011;18593;51.426;7.030;2024-02-16T08:03:58;6.90;;;2.40;;
32080;SDS011;18593;51.426;7.030;2024-02-16T08:06:27;6.95;;;2.33;;
32080;SDS011;18593;51.426;7.030;2024-02-16T08:08:55;7.75;;;2.75;;
32080;SDS011;18593;51.426;7.030;2024-02-16T08:11:23;5.00;;;2.30;;
32080;SDS011;18593;51.426;7.030;2024-02-16T08:13:51;6.93;;;2.53;;
32080;SDS011;18593;51.426;7.030;2024-02-16T08:16:18;6.57;;;2.30;;
32080;SDS011;18593;51.426;7.030;2024-02-16T08:18:45;6.57;;;2.97;;
32080;SDS011;18593;51.426;7.030;2024-02-16T08:21:13;5.65;;;2.25;;
32080;SDS011;18593;51.426;7.030;2024-02-16T08:23:42;8.13;;;2.30;;
32080;SDS011;18593;51.426;7.030;2024-02-16T08:26:09;7.25;;;2.83;;
32080;SDS011;18593;51.426;7.030;2024-02-16T08:28:37;6.75;;;2.45;;
32080;SDS011;18593;51.426;7.030;2024-02-16T08:31:05;7.72;;;3.00;;
32080;SDS011;18593;51.426;7.030;2024-02-16T08:33:33;13.23;;;2.80;;
32080;SDS011;18593;51.426;7.030;2024-02-16T08:36:02;7.70;;;2.40;;
32080;SDS011;18593;51.426;7.030;2024-02-16T08:38:31;7.63;;;2.63;;
32080;SDS011;18593;51.426;7.030;2024-02-16T08:41:00;5.53;;;2.40;;
32080;SDS011;18593;51.426;7.030;2024-02-16T08:43:28;6.65;;;2.40;;
32080;SDS011;18593;51.426;7.030;2024-02-16T08:45:56;6.45;;;3.00;;
32080;SDS011;18593;51.426;7.030;2024-02-16T08:48:23;8.23;;;2.83;;
32080;SDS011;18593;51.426;7.030;2024-02-16T08:50:51;12.15;;;2.92;;
32080;SDS011;18593;51.426;7.030;2024-02-16T08:53:18;8.02;;;2.45;;
32080;SDS011;18593;51.426;7.030;2024-02-16T08:55:46;7.30;;;2.28;;
32080;SDS011;18593;51.426;7.030;2024-02-16T08:58:15;7.28;;;2.58;;
32080;SDS011;18593;51.426;7.030;2024-02-16T09:00:43;8.57;;;2.55;;
32080;SDS011;18593;51.426;7.030;2024-02-16T09:03:11;8.25;;;2.88;;
32080;SDS011;18593;51.426;7.030;2024-02-16T09:05:39;5.30;;;2.40;;
32080;SDS011;18593;51.426;7.030;2024-02-16T09:08:06;6.22;;;2.67;;
32080;SDS011;18593;51.426;7.030;2024-02-16T09:10:34;6.78;;;2.88;;
32080;SDS011;18593;51.426;7.030;2024-02-16T09:13:02;7.78;;;2.60;;
32080;SDS011;18593;51.426;7.030;2024-02-16T09:15:32;7.28;;;2.88;;
32080;SDS011;18593;51.426;7.030;2024-02-16T09:18:00;8.23;;;2.60;;
32080;SDS011;18593;51.426;7.030;2024-02-16T09:20:28;8.68;;;3.08;;
32080;SDS011;18593;51.426;7.030;2024-02-16T09:22:56;8.48;;;2.90;;
32080;SDS011;18593;51.426;7.030;2024-02-16T09:25:23;9.25;;;2.75;;
32080;SDS011;18593;51.426;7.030;2024-02-16T09:27:51;7.00;;;2.40;;
32080;SDS011;18593;51.426;7.030;2024-02-16T09:30:19;8.85;;;2.83;;
32080;SDS011;18593;51.426;7.030;2024-02-16T09:32:48;7.97;;;2.60;;
32080;SDS011;18593;51.426;7.030;2024-02-16T09:35:16;9.75;;;3.17;;
32080;SDS011;18593;51.426;7.030;2024-02-16T09:37:44;10.77;;;3.40;;
32080;SDS011;18593;51.426;7.030;2024-02-16T09:40:11;8.13;;;2.47;;
32080;SDS011;18593;51.426;7.030;2024-02-16T09:42:39;9.90;;;3.08;;
32080;SDS011;18593;51.426;7.030;2024-02-16T09:45:07;8.27;;;2.60;;
32080;SDS011;18593;51.426;7.030;2024-02-16T09:47:37;6.80;;;2.42;;
32080;SDS011;18593;51.426;7.030;2024-02-16T09:50:09;8.25;;;3.00;;
32080;SDS011;18593;51.426;7.030;2024-02-16T09:52:37;7.20;;;2.75;;
32080;SDS011;18593;51.426;7.030;2024-02-16T09:55:07;8.95;;;2.72;;
32080;SDS011;18593;51.426;7.030;2024-02-16T09:57:39;7.18;;;2.70;;
32080;SDS011;18593;51.426;7.030;2024-02-16T10:00:07;8.48;;;3.00;;
32080;SDS011;18593;51.426;7.030;2024-02-16T10:02:39;12.45;;;2.90;;
32080;SDS011;18593;51.426;7.030;2024-02-16T10:05:14;9.38;;;2.72;;
32080;SDS011;18593;51.426;7.030;2024-02-16T10:07:43;8.75;;;3.08;;
32080;SDS011;18593;51.426;7.030;2024-02-16T10:10:21;6.95;;;2.63;;
32080;SDS011;18593;51.426;7.030;2024-02-16T10:12:49;10.52;;;3.33;;
32080;SDS011;18593;51.426;7.030;2024-02-16T10:15:20;9.75;;;3.00;;
32080;SDS011;18593;51.426;7.030;2024-02-16T10:17:58;9.35;;;3.33;;
32080;SDS011;18593;51.426;7.030;2024-02-16T10:20:27;8.18;;;3.05;;
32080;SDS011;18593;51.426;7.030;2024-02-16T10:23:08;8.55;;;2.90;;
32080;SDS011;18593;51.426;7.030;2024-02-16T10:25:36;7.47;;;2.97;;
32080;SDS011;18593;51.426;7.030;2024-02-16T10:28:06;7.43;;;2.75;;
32080;SDS011;18593;51.426;7.030;2024-02-16T10:30:37;8.65;;;3.10;;
32080;SDS011;18593;51.426;7.030;2024-02-16T10:33:08;9.65;;;2.85;;
32080;SDS011;18593;51.426;7.030;2024-02-16T10:35:38;7.75;;;3.10;;
32080;SDS011;18593;51.426;7.030;2024-02-16T10:38:06;7.07;;;3.03;;
32080;SDS011;18593;51.426;7.030;2024-02-16T10:43:05;7.85;;;2.95;;
32080;SDS011;18593;51.426;7.030;2024-02-16T10:45:34;8.90;;;3.13;;
32080;SDS011;18593;51.426;7.030;2024-02-16T10:48:04;10.27;;;3.05;;
32080;SDS011;18593;51.426;7.030;2024-02-16T10:50:34;9.00;;;2.80;;
32080;SDS011;18593;51.426;7.030;2024-02-16T10:53:06;10.05;;;3.38;;
32080;SDS011;18593;51.426;7.030;2024-02-16T10:55:40;15.15;;;3.17;;
32080;SDS011;18593;51.426;7.030;2024-02-16T10:58:10;10.32;;;3.13;;
32080;SDS011;18593;51.426;7.030;2024-02-16T11:00:47;9.07;;;3.20;;
32080;SDS011;18593;51.426;7.030;2024-02-16T11:03:17;9.57;;;3.38;;
32080;SDS011;18593;51.426;7.030;2024-02-16T11:05:49;9.98;;;3.17;;
32080;SDS011;18593;51.426;7.030;2024-02-16T11:08:19;7.22;;;3.03;;
32080;SDS011;18593;51.426;7.030;2024-02-16T11:10:55;6.32;;;3.20;;
32080;SDS011;18593;51.426;7.030;2024-02-16T11:13:24;10.85;;;3.35;;
32080;SDS011;18593;51.426;7.030;2024-02-16T11:15:57;9.63;;;3.40;;
32080;SDS011;18593;51.426;7.030;2024-02-16T11:18:27;8.55;;;3.20;;
32080;SDS011;18593;51.426;7.030;2024-02-16T11:20:55;8.10;;;3.13;;
32080;SDS011;18593;51.426;7.030;2024-02-16T11:23:29;13.20;;;4.10;;
32080;SDS011;18593;51.426;7.030;2024-02-16T11:25:59;15.38;;;3.80;;
32080;SDS011;18593;51.426;7.030;2024-02-16T11:28:28;11.38;;;3.72;;
32080;SDS011;18593;51.426;7.030;2024-02-16T11:30:58;10.57;;;4.53;;
32080;SDS011;18593;51.426;7.030;2024-02-16T11:33:25;11.02;;;4.00;;
32080;SDS011;18593;51.426;7.030;2024-02-16T11:35:54;9.52;;;4.13;;
32080;SDS011;18593;51.426;7.030;2024-02-16T11:38:23;17.92;;;3.63;;
32080;SDS011;18593;51.426;7.030;2024-02-16T11:40:56;11.38;;;3.53;;
32080;SDS011;18593;51.426;7.030;2024-02-16T11:43:27;9.48;;;3.22;;
32080;SDS011;18593;51.426;7.030;2024-02-16T11:45:57;12.55;;;3.90;;
32080;SDS011;18593;51.426;7.030;2024-02-16T11:48:26;7.45;;;3.30;;
32080;SDS011;18593;51.426;7.030;2024-02-16T11:50:58;9.07;;;3.75;;
32080;SDS011;18593;51.426;7.030;2024-02-16T11:53:28;8.65;;;3.78;;
32080;SDS011;18593;51.426;7.030;2024-02-16T11:55:57;7.85;;;3.58;;
32080;SDS011;18593;51.426;7.030;2024-02-16T11:58:25;9.52;;;3.53;;
32080;SDS011;18593;51.426;7.030;2024-02-16T12:00:54;11.27;;;3.72;;
32080;SDS011;18593;51.426;7.030;2024-02-16T12:03:25;11.15;;;3.45;;
32080;SDS011;18593;51.426;7.030;2024-02-16T12:05:53;11.00;;;3.72;;
32080;SDS011;18593;51.426;7.030;2024-02-16T12:08:23;9.30;;;3.80;;
32080;SDS011;18593;51.426;7.030;2024-02-16T12:11:03;8.18;;;3.47;;
32080;SDS011;18593;51.426;7.030;2024-02-16T12:13:32;12.20;;;3.80;;
32080;SDS011;18593;51.426;7.030;2024-02-16T12:16:03;9.63;;;3.60;;
32080;SDS011;18593;51.426;7.030;2024-02-16T12:18:32;11.93;;;4.43;;
32080;SDS011;18593;51.426;7.030;2024-02-16T12:20:59;9.75;;;3.85;;
32080;SDS011;18593;51.426;7.030;2024-02-16T12:23:29;13.15;;;4.55;;
32080;SDS011;18593;51.426;7.030;2024-02-16T12:25:57;7.40;;;3.78;;
32080;SDS011;18593;51.426;7.030;2024-02-16T12:28:27;14.23;;;4.50;;
32080;SDS011;18593;51.426;7.030;2024-02-16T12:30:57;16.75;;;4.20;;
32080;SDS011;18593;51.426;7.030;2024-02-16T12:33:25;8.13;;;3.63;;
32080;SDS011;18593;51.426;7.030;2024-02-16T12:35:55;11.95;;;4.53;;
32080;SDS011;18593;51.426;7.030;2024-02-16T12:38:25;12.23;;;4.53;;
32080;SDS011;18593;51.426;7.030;2024-02-16T12:40:53;15.18;;;4.57;;
32080;SDS011;18593;51.426;7.030;2024-02-16T12:43:20;21.02;;;4.93;;
32080;SDS011;18593;51.426;7.030;2024-02-16T12:45:53;13.20;;;4.65;;
32080;SDS011;18593;51.426;7.030;2024-02-16T12:48:21;15.57;;;4.80;;
32080;SDS011;18593;51.426;7.030;2024-02-16T12:50:56;16.50;;;4.95;;
32080;SDS011;18593;51.426;7.030;2024-02-16T12:53:23;14.00;;;5.80;;
32080;SDS011;18593;51.426;7.030;2024-02-16T12:55:53;15.70;;;4.60;;
32080;SDS011;18593;51.426;7.030;2024-02-16T12:58:26;14.93;;;5.30;;
32080;SDS011;18593;51.426;7.030;2024-02-16T13:00:59;13.57;;;5.20;;
32080;SDS011;18593;51.426;7.030;2024-02-16T13:03:33;12.13;;;5.00;;
32080;SDS011;18593;51.426;7.030;2024-02-16T13:06:11;16.13;;;5.40;;
32080;SDS011;18593;51.426;7.030;2024-02-16T13:08:44;13.65;;;5.63;;
32080;SDS011;18593;51.426;7.030;2024-02-16T13:11:15;16.65;;;5.45;;
32080;SDS011;18593;51.426;7.030;2024-02-16T13:13:53;13.27;;;5.90;;
32080;SDS011;18593;51.426;7.030;2024-02-16T13:16:25;16.27;;;6.28;;
32080;SDS011;18593;51.426;7.030;2024-02-16T13:18:56;13.88;;;6.65;;
32080;SDS011;18593;51.426;7.030;2024-02-16T13:21:26;14.52;;;5.78;;
32080;SDS011;18593;51.426;7.030;2024-02-16T13:23:56;12.43;;;5.97;;
32080;SDS011;18593;51.426;7.030;2024-02-16T13:26:23;12.32;;;5.55;;
32080;SDS011;18593;51.426;7.030;2024-02-16T13:28:57;14.75;;;5.63;;
32080;SDS011;18593;51.426;7.030;2024-02-16T13:31:29;14.00;;;6.32;;
32080;SDS011;18593;51.426;7.030;2024-02-16T13:34:08;14.88;;;6.05;;
32080;SDS011;18593;51.426;7.030;2024-02-16T13:36:37;11.82;;;5.85;;
32080;SDS011;18593;51.426;7.030;2024-02-16T13:39:06;15.35;;;6.20;;
32080;SDS011;18593;51.426;7.030;2024-02-16T13:41:39;11.98;;;6.32;;
32080;SDS011;18593;51.426;7.030;2024-02-16T13:44:11;16.00;;;6.63;;
32080;SDS011;18593;51.426;7.030;2024-02-16T13:46:43;13.00;;;7.07;;
32080;SDS011;18593;51.426;7.030;2024-02-16T13:49:14;17.65;;;7.20;;
32080;SDS011;18593;51.426;7.030;2024-02-16T13:51:42;13.63;;;7.10;;
32080;SDS011;18593;51.426;7.030;2024-02-16T13:54:10;17.00;;;7.72;;
32080;SDS011;18593;51.426;7.030;2024-02-16T13:56:38;13.75;;;7.05;;
32080;SDS011;18593;51.426;7.030;2024-02-16T13:59:06;17.05;;;7.65;;
32080;SDS011;18593;51.426;7.030;2024-02-16T14:01:34;11.95;;;7.30;;
32080;SDS011;18593;51.426;7.030;2024-02-16T14:04:04;14.93;;;7.43;;
32080;SDS011;18593;51.426;7.030;2024-02-16T14:06:31;13.90;;;7.70;;
32080;SDS011;18593;51.426;7.030;2024-02-16T14:09:00;13.50;;;7.78;;
32080;SDS011;18593;51.426;7.030;2024-02-16T14:11:35;14.38;;;8.90;;
32080;SDS011;18593;51.426;7.030;2024-02-16T14:14:02;21.33;;;8.38;;
32080;SDS011;18593;51.426;7.030;2024-02-16T14:16:31;14.82;;;8.23;;
32080;SDS011;18593;51.426;7.030;2024-02-16T14:18:59;12.98;;;7.88;;
32080;SDS011;18593;51.426;7.030;2024-02-16T14:21:28;19.50;;;8.48;;
32080;SDS011;18593;51.426;7.030;2024-02-16T14:23:56;18.60;;;7.63;;
32080;SDS011;18593;51.426;7.030;2024-02-16T14:26:23;16.65;;;8.48;;
32080;SDS011;18593;51.426;7.030;2024-02-16T14:28:51;17.60;;;9.45;;
32080;SDS011;18593;51.426;7.030;2024-02-16T14:31:20;18.77;;;8.93;;
32080;SDS011;18593;51.426;7.030;2024-02-16T14:33:48;14.55;;;8.35;;
32080;SDS011;18593;51.426;7.030;2024-02-16T14:36:15;15.80;;;9.05;;
32080;SDS011;18593;51.426;7.030;2024-02-16T14:38:44;16.70;;;10.20;;
32080;SDS011;18593;51.426;7.030;2024-02-16T14:41:12;18.85;;;13.57;;
32080;SDS011;18593;51.426;7.030;2024-02-16T14:43:41;19.13;;;13.60;;
32080;SDS011;18593;51.426;7.030;2024-02-16T14:46:10;22.60;;;14.50;;
32080;SDS011;18593;51.426;7.030;2024-02-16T14:48:37;20.77;;;14.23;;
32080;SDS011;18593;51.426;7.030;2024-02-16T14:51:04;21.25;;;15.20;;
32080;SDS011;18593;51.426;7.030;2024-02-16T14:53:32;21.33;;;14.40;;
32080;SDS011;18593;51.426;7.030;2024-02-16T14:56:01;22.75;;;15.20;;